createdAt,value
2019-04-01T00:00:07.920Z,304.60
2019-04-01T00:01:07.907Z,304.01
2019-04-01T00:02:07.896Z,304.37
2019-04-01T00:03:07.876Z,304.42
2019-04-01T00:04:07.829Z,304.91
2019-04-01T00:05:07.865Z,304.75
2019-04-01T00:06:07.878Z,304.71
2019-04-01T00:07:07.830Z,304.29
2019-04-01T00:08:07.840Z,304.39
2019-04-01T00:09:07.809Z,304.88
2019-04-01T00:10:07.847Z,304.82
2019-04-01T00:11:07.762Z,304.86
2019-04-01T00:12:07.828Z,304.81
2019-04-01T00:13:07.818Z,305.06
2019-04-01T00:14:07.765Z,305.27
2019-04-01T00:15:07.713Z,305.21
2019-04-01T00:16:07.715Z,305.27
2019-04-01T00:17:08.535Z,305.87
2019-04-01T00:18:07.721Z,305.40
2019-04-01T00:19:07.926Z,305.29
2019-04-01T00:20:07.726Z,305.00
2019-04-01T00:21:07.721Z,305.43
2019-04-01T00:22:07.644Z,305.52
2019-04-01T00:23:07.772Z,304.76
2019-04-01T00:24:07.641Z,305.08
2019-04-01T00:25:07.630Z,304.95
2019-04-01T00:26:07.630Z,304.75
2019-04-01T00:27:07.587Z,304.71
2019-04-01T00:28:07.599Z,304.85
2019-04-01T00:29:07.621Z,304.91
2019-04-01T00:30:07.631Z,305.07
2019-04-01T00:31:07.576Z,305.27
2019-04-01T00:32:07.590Z,304.58
2019-04-01T00:33:07.539Z,305.18
2019-04-01T00:34:07.520Z,305.29
2019-04-01T00:35:07.553Z,305.03
2019-04-01T00:36:07.512Z,305.33
2019-04-01T00:37:07.492Z,305.44
2019-04-01T00:38:07.543Z,305.76
2019-04-01T00:39:07.470Z,305.33
2019-04-01T00:40:07.456Z,305.51
2019-04-01T00:41:07.501Z,305.32
2019-04-01T00:42:07.454Z,305.70
2019-04-01T00:43:07.484Z,305.68
2019-04-01T00:44:07.418Z,304.97
2019-04-01T00:45:07.549Z,305.66
2019-04-01T00:46:07.565Z,305.55
2019-04-01T00:47:07.427Z,305.17
2019-04-01T00:48:07.374Z,305.35
2019-04-01T00:49:07.356Z,305.05
2019-04-01T00:50:07.364Z,305.21
2019-04-01T00:51:07.410Z,305.16
2019-04-01T00:52:07.374Z,305.63
2019-04-01T00:53:07.333Z,305.17
2019-04-01T00:54:07.333Z,305.25
2019-04-01T00:55:07.356Z,305.22
2019-04-01T00:56:07.309Z,305.26
2019-04-01T00:57:07.330Z,305.44
2019-04-01T00:58:07.298Z,305.68
2019-04-01T00:59:07.271Z,305.52
2019-04-01T01:00:07.265Z,305.62
2019-04-01T01:01:07.338Z,305.61
2019-04-01T01:02:07.341Z,305.58
2019-04-01T01:03:07.270Z,305.65
2019-04-01T01:04:07.249Z,305.41
2019-04-01T01:05:07.227Z,305.94
2019-04-01T01:06:07.265Z,305.57
2019-04-01T01:07:07.350Z,306.24
2019-04-01T01:08:07.174Z,305.88
2019-04-01T01:09:07.213Z,306.05
2019-04-01T01:10:07.156Z,305.49
2019-04-01T01:11:07.185Z,305.99
2019-04-01T01:12:07.158Z,306.04
2019-04-01T01:13:07.152Z,306.11
2019-04-01T01:14:07.136Z,306.08
2019-04-01T01:15:07.123Z,305.50
2019-04-01T01:16:07.116Z,306.41
2019-04-01T01:17:07.073Z,305.94
2019-04-01T01:18:07.218Z,305.79
2019-04-01T01:19:07.090Z,305.98
2019-04-01T01:20:08.558Z,305.92
2019-04-01T01:21:07.046Z,305.95
2019-04-01T01:22:07.049Z,306.21
2019-04-01T01:23:07.023Z,305.92
2019-04-01T01:24:07.169Z,306.40
2019-04-01T01:25:07.044Z,306.00
2019-04-01T01:26:07.111Z,305.66
2019-04-01T01:27:06.988Z,305.35
2019-04-01T01:28:06.974Z,305.33
2019-04-01T01:29:07.124Z,305.73
2019-04-01T01:30:06.985Z,305.73
2019-04-01T01:31:07.097Z,305.25
2019-04-01T01:32:07.106Z,305.71
2019-04-01T01:33:06.966Z,305.38
2019-04-01T01:34:07.016Z,305.22
2019-04-01T01:35:06.917Z,305.51
2019-04-01T01:36:06.926Z,305.42
2019-04-01T01:37:06.913Z,305.31
2019-04-01T01:38:06.914Z,305.34
2019-04-01T01:39:06.942Z,305.45
2019-04-01T01:40:06.881Z,305.67
2019-04-01T01:41:07.546Z,305.62
2019-04-01T01:42:06.826Z,305.69
2019-04-01T01:43:06.824Z,306.18
2019-04-01T01:44:06.861Z,305.92
2019-04-01T01:45:06.780Z,306.09
2019-04-01T01:46:06.875Z,305.98
2019-04-01T01:47:06.828Z,305.89
2019-04-01T01:48:06.895Z,306.09
2019-04-01T01:49:06.778Z,306.39
2019-04-01T01:50:06.825Z,306.31
2019-04-01T01:51:06.761Z,306.52
2019-04-01T01:52:06.746Z,306.52
2019-04-01T01:53:06.817Z,305.91
2019-04-01T01:54:07.550Z,306.45
2019-04-01T01:55:06.803Z,306.00
2019-04-01T01:56:06.821Z,305.86
2019-04-01T01:57:07.865Z,305.77
2019-04-01T01:58:06.861Z,305.81
2019-04-01T01:59:06.741Z,305.71
2019-04-01T02:00:06.866Z,306.25
2019-04-01T02:01:06.713Z,306.05
2019-04-01T02:02:06.825Z,306.39
2019-04-01T02:03:06.819Z,306.13
2019-04-01T02:04:06.718Z,306.16
2019-04-01T02:05:06.672Z,306.17
2019-04-01T02:06:06.698Z,306.20
2019-04-01T02:07:06.747Z,306.15
2019-04-01T02:08:06.568Z,306.80
2019-04-01T02:09:07.059Z,306.33
2019-04-01T02:10:06.606Z,306.62
2019-04-01T02:11:06.757Z,306.79
2019-04-01T02:12:06.583Z,307.00
2019-04-01T02:13:06.525Z,307.17
2019-04-01T02:14:06.496Z,307.22
2019-04-01T02:15:06.552Z,306.87
2019-04-01T02:16:06.484Z,307.14
2019-04-01T02:17:06.478Z,307.55
2019-04-01T02:18:06.444Z,307.59
2019-04-01T02:19:06.436Z,307.67
2019-04-01T02:20:08.928Z,307.66
2019-04-01T02:21:06.427Z,307.35
2019-04-01T02:22:06.433Z,307.15
2019-04-01T02:23:06.408Z,307.38
2019-04-01T02:24:06.421Z,307.65
2019-04-01T02:25:06.407Z,307.55
2019-04-01T02:26:06.364Z,306.99
2019-04-01T02:27:06.402Z,307.16
2019-04-01T02:28:06.366Z,307.51
2019-04-01T02:29:06.345Z,307.57
2019-04-01T02:30:06.395Z,307.75
2019-04-01T02:31:06.356Z,307.45
2019-04-01T02:32:06.301Z,307.75
2019-04-01T02:33:06.327Z,307.74
2019-04-01T02:34:06.274Z,307.82
2019-04-01T02:35:06.295Z,307.67
2019-04-01T02:36:06.276Z,306.64
2019-04-01T02:37:06.258Z,306.26
2019-04-01T02:38:06.310Z,307.22
2019-04-01T02:39:06.300Z,307.31
2019-04-01T02:40:06.275Z,307.43
2019-04-01T02:41:06.281Z,307.31
2019-04-01T02:42:06.245Z,307.30
2019-04-01T02:43:06.218Z,307.88
2019-04-01T02:44:06.213Z,306.96
2019-04-01T02:45:06.255Z,307.26
2019-04-01T02:46:06.209Z,308.16
2019-04-01T02:47:06.195Z,308.28
2019-04-01T02:48:06.176Z,307.79
2019-04-01T02:49:06.185Z,308.54
2019-04-01T02:50:06.109Z,308.74
2019-04-01T02:51:06.135Z,308.88
2019-04-01T02:52:06.093Z,309.31
2019-04-01T02:53:06.093Z,309.18
2019-04-01T02:54:06.075Z,310.21
2019-04-01T02:55:06.822Z,309.31
2019-04-01T02:56:06.073Z,309.10
2019-04-01T02:57:06.175Z,308.96
2019-04-01T02:58:06.050Z,308.84
2019-04-01T02:59:06.047Z,308.82
2019-04-01T03:00:06.117Z,308.62
2019-04-01T03:01:06.042Z,308.67
2019-04-01T03:02:05.996Z,308.73
2019-04-01T03:03:05.998Z,309.19
2019-04-01T03:04:05.986Z,309.89
2019-04-01T03:05:06.042Z,310.15
2019-04-01T03:06:05.992Z,309.79
2019-04-01T03:07:05.954Z,309.99
2019-04-01T03:08:05.959Z,309.97
2019-04-01T03:09:05.926Z,310.73
2019-04-01T03:10:05.907Z,310.24
2019-04-01T03:11:09.979Z,310.72
2019-04-01T03:12:06.958Z,310.44
2019-04-01T03:13:05.897Z,310.33
2019-04-01T03:14:05.901Z,310.43
2019-04-01T03:15:05.906Z,310.78
2019-04-01T03:16:05.885Z,310.08
2019-04-01T03:17:05.896Z,309.73
2019-04-01T03:18:05.830Z,310.26
2019-04-01T03:19:05.877Z,310.17
2019-04-01T03:20:05.826Z,309.99
2019-04-01T03:21:05.832Z,309.85
2019-04-01T03:22:05.835Z,310.23
2019-04-01T03:23:05.907Z,310.31
2019-04-01T03:24:05.797Z,310.22
2019-04-01T03:25:05.795Z,309.70
2019-04-01T03:26:05.821Z,310.38
2019-04-01T03:27:05.771Z,310.75
2019-04-01T03:28:05.739Z,310.71
2019-04-01T03:29:05.787Z,310.48
2019-04-01T03:30:05.776Z,310.73
2019-04-01T03:31:05.834Z,310.81
2019-04-01T03:32:05.691Z,310.57
2019-04-01T03:33:05.692Z,310.32
2019-04-01T03:34:05.664Z,310.82
2019-04-01T03:35:05.681Z,310.44
2019-04-01T03:36:05.702Z,310.32
2019-04-01T03:37:05.684Z,311.02
2019-04-01T03:38:05.682Z,311.72
2019-04-01T03:39:05.646Z,311.02
2019-04-01T03:40:05.620Z,311.09
2019-04-01T03:41:05.592Z,310.87
2019-04-01T03:42:05.614Z,310.17
2019-04-01T03:43:05.658Z,310.25
2019-04-01T03:44:05.590Z,310.00
2019-04-01T03:45:05.630Z,309.71
2019-04-01T03:46:05.541Z,310.30
2019-04-01T03:47:05.548Z,310.12
2019-04-01T03:48:05.533Z,309.87
2019-04-01T03:49:05.558Z,310.35
2019-04-01T03:50:05.517Z,310.52
2019-04-01T03:51:05.510Z,310.93
2019-04-01T03:52:10.046Z,311.34
2019-04-01T03:53:05.540Z,310.86
2019-04-01T03:54:05.458Z,310.71
2019-04-01T03:55:05.469Z,310.95
2019-04-01T03:56:05.448Z,310.89
2019-04-01T03:57:05.448Z,310.99
2019-04-01T03:58:05.466Z,311.05
2019-04-01T03:59:05.397Z,310.67
2019-04-01T04:00:05.472Z,310.87
2019-04-01T04:01:05.402Z,310.65
2019-04-01T04:02:05.458Z,310.69
2019-04-01T04:03:05.405Z,310.74
2019-04-01T04:04:05.400Z,310.30
2019-04-01T04:05:05.400Z,310.26
2019-04-01T04:06:05.370Z,310.92
2019-04-01T04:07:05.383Z,310.45
2019-04-01T04:08:05.324Z,309.85
2019-04-01T04:09:05.362Z,310.40
2019-04-01T04:10:05.304Z,310.24
2019-04-01T04:11:05.302Z,311.51
2019-04-01T04:12:05.284Z,310.57
2019-04-01T04:13:05.294Z,310.31
2019-04-01T04:14:05.377Z,310.09
2019-04-01T04:15:05.289Z,310.64
2019-04-01T04:16:05.265Z,310.48
2019-04-01T04:17:05.404Z,310.19
2019-04-01T04:18:05.282Z,309.87
2019-04-01T04:19:05.210Z,310.81
2019-04-01T04:20:05.230Z,309.86
2019-04-01T04:21:05.193Z,309.52
2019-04-01T04:22:05.180Z,309.67
2019-04-01T04:23:05.179Z,310.06
2019-04-01T04:24:05.151Z,309.98
2019-04-01T04:25:05.166Z,309.85
2019-04-01T04:26:05.151Z,309.89
2019-04-01T04:27:05.162Z,310.09
2019-04-01T04:28:05.146Z,309.88
2019-04-01T04:29:05.149Z,309.89
2019-04-01T04:30:05.106Z,310.02
2019-04-01T04:31:05.099Z,309.67
2019-04-01T04:32:05.082Z,309.18
2019-04-01T04:33:05.150Z,310.22
2019-04-01T04:34:05.085Z,309.38
2019-04-01T04:35:05.098Z,309.80
2019-04-01T04:36:05.053Z,310.07
2019-04-01T04:37:05.037Z,309.87
2019-04-01T04:38:05.035Z,309.46
2019-04-01T04:39:05.056Z,309.82
2019-04-01T04:40:05.034Z,309.54
2019-04-01T04:41:05.007Z,310.08
2019-04-01T04:42:05.035Z,309.93
2019-04-01T04:43:05.060Z,309.82
2019-04-01T04:44:04.945Z,310.07
2019-04-01T04:45:04.967Z,310.26
2019-04-01T04:46:05.006Z,310.31
2019-04-01T04:47:04.920Z,309.65
2019-04-01T04:48:04.926Z,310.72
2019-04-01T04:49:04.899Z,310.69
2019-04-01T04:50:04.923Z,310.36
2019-04-01T04:51:04.894Z,310.81
2019-04-01T04:52:04.884Z,310.36
2019-04-01T04:53:04.853Z,310.14
2019-04-01T04:54:04.849Z,310.50
2019-04-01T04:55:04.844Z,310.35
2019-04-01T04:56:04.847Z,310.76
2019-04-01T04:57:04.822Z,310.54
2019-04-01T04:58:04.793Z,310.39
2019-04-01T04:59:04.835Z,310.47
2019-04-01T05:00:04.851Z,310.92
2019-04-01T05:01:04.879Z,311.21
2019-04-01T05:02:04.774Z,310.85
2019-04-01T05:03:04.819Z,311.11
2019-04-01T05:04:04.737Z,310.87
2019-04-01T05:05:04.777Z,310.63
2019-04-01T05:06:13.656Z,311.01
2019-04-01T05:07:04.721Z,311.32
2019-04-01T05:08:04.718Z,311.02
2019-04-01T05:09:04.678Z,311.54
2019-04-01T05:10:04.685Z,311.10
2019-04-01T05:11:04.654Z,311.13
2019-04-01T05:12:04.664Z,311.47
2019-04-01T05:13:04.626Z,310.65
2019-04-01T05:14:04.652Z,311.36
2019-04-01T05:15:04.631Z,311.55
2019-04-01T05:16:04.622Z,311.23
2019-04-01T05:17:04.609Z,311.27
2019-04-01T05:18:04.591Z,310.72
2019-04-01T05:19:04.603Z,311.34
2019-04-01T05:20:04.571Z,311.28
2019-04-01T05:21:04.566Z,311.20
2019-04-01T05:22:04.557Z,310.82
2019-04-01T05:23:04.573Z,311.79
2019-04-01T05:24:04.569Z,311.09
2019-04-01T05:25:04.523Z,311.12
2019-04-01T05:26:04.537Z,311.58
2019-04-01T05:27:04.498Z,311.38
2019-04-01T05:28:04.501Z,311.29
2019-04-01T05:29:04.497Z,311.65
2019-04-01T05:30:04.518Z,311.72
2019-04-01T05:31:04.454Z,311.11
2019-04-01T05:32:04.471Z,311.61
2019-04-01T05:33:04.443Z,311.25
2019-04-01T05:34:04.439Z,310.57
2019-04-01T05:35:04.420Z,311.65
2019-04-01T05:36:04.436Z,310.83
2019-04-01T05:37:04.400Z,311.30
2019-04-01T05:38:04.411Z,311.33
2019-04-01T05:39:04.385Z,311.18
2019-04-01T05:40:04.377Z,311.29
2019-04-01T05:41:04.351Z,311.32
2019-04-01T05:42:04.339Z,312.02
2019-04-01T05:43:04.341Z,312.53
2019-04-01T05:44:04.333Z,312.29
2019-04-01T05:45:04.323Z,312.28
2019-04-01T05:46:04.334Z,312.08
2019-04-01T05:47:04.316Z,311.93
2019-04-01T05:48:04.286Z,311.62
2019-04-01T05:49:04.296Z,312.15
2019-04-01T05:50:04.306Z,312.30
2019-04-01T05:51:04.256Z,312.44
2019-04-01T05:52:04.240Z,312.31
2019-04-01T05:53:04.235Z,311.99
2019-04-01T05:54:04.223Z,312.43
2019-04-01T05:55:04.221Z,311.46
2019-04-01T05:56:04.228Z,312.04
2019-04-01T05:57:04.220Z,311.91
2019-04-01T05:58:04.223Z,311.79
2019-04-01T05:59:04.169Z,312.18
2019-04-01T06:00:04.167Z,311.97
2019-04-01T06:01:04.172Z,311.89
2019-04-01T06:02:04.166Z,311.49
2019-04-01T06:03:04.156Z,311.13
2019-04-01T06:04:04.164Z,310.65
2019-04-01T06:05:04.116Z,311.17
2019-04-01T06:06:04.107Z,311.16
2019-04-01T06:07:04.154Z,310.36
2019-04-01T06:08:04.080Z,309.40
2019-04-01T06:09:04.072Z,309.83
2019-04-01T06:10:04.063Z,309.29
2019-04-01T06:11:04.040Z,310.08
2019-04-01T06:12:04.038Z,309.78
2019-04-01T06:13:04.030Z,310.54
2019-04-01T06:14:13.227Z,310.25
2019-04-01T06:15:13.233Z,310.26
2019-04-01T06:16:03.991Z,310.70
2019-04-01T06:17:03.987Z,310.65
2019-04-01T06:18:03.999Z,310.26
2019-04-01T06:19:05.940Z,310.16
2019-04-01T06:20:03.952Z,310.16
2019-04-01T06:21:03.947Z,310.44
2019-04-01T06:22:03.916Z,310.35
2019-04-01T06:23:03.915Z,311.42
2019-04-01T06:24:03.955Z,311.10
2019-04-01T06:25:03.909Z,311.17
2019-04-01T06:26:03.958Z,311.41
2019-04-01T06:27:03.889Z,311.52
2019-04-01T06:28:03.866Z,311.43
2019-04-01T06:29:03.852Z,312.48
2019-04-01T06:30:03.859Z,312.11
2019-04-01T06:31:03.823Z,312.48
2019-04-01T06:32:03.824Z,311.80
2019-04-01T06:33:03.823Z,311.93
2019-04-01T06:34:03.790Z,312.56
2019-04-01T06:35:03.783Z,312.06
2019-04-01T06:36:03.792Z,312.08
2019-04-01T06:37:03.758Z,312.06
2019-04-01T06:38:03.767Z,312.32
2019-04-01T06:39:04.667Z,311.79
2019-04-01T06:40:03.743Z,311.67
2019-04-01T06:41:03.731Z,312.29
2019-04-01T06:42:07.058Z,312.16
2019-04-01T06:43:03.713Z,312.40
2019-04-01T06:44:03.701Z,312.00
2019-04-01T06:45:03.706Z,312.14
2019-04-01T06:46:03.715Z,312.59
2019-04-01T06:47:03.661Z,311.41
2019-04-01T06:48:03.653Z,312.43
2019-04-01T06:49:03.660Z,311.97
2019-04-01T06:50:03.648Z,311.68
2019-04-01T06:51:03.623Z,311.55
2019-04-01T06:52:03.676Z,312.45
2019-04-01T06:53:03.621Z,311.72
2019-04-01T06:54:03.600Z,311.90
2019-04-01T06:55:03.619Z,312.54
2019-04-01T06:56:03.607Z,312.09
2019-04-01T06:57:03.603Z,311.60
2019-04-01T06:58:03.548Z,312.07
2019-04-01T06:59:03.560Z,311.72
2019-04-01T07:00:03.532Z,311.95
2019-04-01T07:01:03.538Z,311.10
2019-04-01T07:02:03.567Z,311.91
2019-04-01T07:03:03.499Z,311.85
2019-04-01T07:04:03.493Z,310.93
2019-04-01T07:05:03.498Z,310.75
2019-04-01T07:06:03.498Z,311.36
2019-04-01T07:07:17.793Z,310.98
2019-04-01T07:08:04.444Z,311.09
2019-04-01T07:09:03.449Z,310.88
2019-04-01T07:10:03.432Z,310.96
2019-04-01T07:11:03.411Z,310.45
2019-04-01T07:12:03.406Z,310.21
2019-04-01T07:13:03.405Z,310.60
2019-04-01T07:14:03.406Z,309.50
2019-04-01T07:15:03.405Z,309.36
2019-04-01T07:16:14.628Z,308.80
2019-04-01T07:17:04.350Z,309.34
2019-04-01T07:18:03.361Z,309.51
2019-04-01T07:19:03.339Z,310.02
2019-04-01T07:20:03.336Z,310.02
2019-04-01T07:21:03.334Z,308.31
2019-04-01T07:22:03.319Z,308.38
2019-04-01T07:23:03.294Z,308.11
2019-04-01T07:24:03.290Z,307.93
2019-04-01T07:25:03.272Z,307.67
2019-04-01T07:26:03.267Z,307.25
2019-04-01T07:27:03.319Z,305.89
2019-04-01T07:28:03.255Z,307.07
2019-04-01T07:29:03.231Z,307.39
2019-04-01T07:30:03.223Z,306.80
2019-04-01T07:31:03.224Z,307.18
2019-04-01T07:32:03.207Z,307.49
2019-04-01T07:33:03.221Z,307.10
2019-04-01T07:34:03.178Z,306.48
2019-04-01T07:35:03.172Z,306.09
2019-04-01T07:36:03.164Z,305.86
2019-04-01T07:37:03.160Z,307.00
2019-04-01T07:38:03.249Z,307.12
2019-04-01T07:39:03.150Z,306.88
2019-04-01T07:40:03.121Z,306.95
2019-04-01T07:41:03.111Z,306.15
2019-04-01T07:42:03.102Z,306.44
2019-04-01T07:43:03.094Z,306.45
2019-04-01T07:44:03.113Z,306.21
2019-04-01T07:45:03.054Z,305.06
2019-04-01T07:46:03.057Z,305.13
2019-04-01T07:47:03.036Z,305.17
2019-04-01T07:48:03.030Z,304.49
2019-04-01T07:49:03.117Z,304.18
2019-04-01T07:50:03.041Z,304.60
2019-04-01T07:51:03.000Z,304.01
2019-04-01T07:52:02.973Z,304.65
2019-04-01T07:53:02.971Z,304.47
2019-04-01T07:54:03.070Z,304.51
2019-04-01T07:55:02.999Z,304.13
2019-04-01T07:56:02.948Z,304.00
2019-04-01T07:57:02.938Z,303.89
2019-04-01T07:58:02.917Z,303.98
2019-04-01T07:59:02.954Z,302.70
2019-04-01T08:00:02.912Z,302.39
2019-04-01T08:01:02.885Z,303.06
2019-04-01T08:02:02.885Z,302.96
2019-04-01T08:03:02.872Z,302.87
2019-04-01T08:04:02.859Z,302.90
2019-04-01T08:05:02.865Z,303.02
2019-04-01T08:06:02.840Z,302.22
2019-04-01T08:07:02.836Z,302.53
2019-04-01T08:08:02.813Z,302.76
2019-04-01T08:09:02.843Z,302.74
2019-04-01T08:10:02.825Z,302.62
2019-04-01T08:11:02.784Z,303.31
2019-04-01T08:12:02.771Z,303.32
2019-04-01T08:13:02.753Z,302.35
2019-04-01T08:14:02.774Z,302.15
2019-04-01T08:15:02.795Z,303.77
2019-04-01T08:16:02.747Z,303.43
2019-04-01T08:17:02.762Z,304.06
2019-04-01T08:18:02.711Z,304.39
2019-04-01T08:19:02.704Z,302.95
2019-04-01T08:20:02.731Z,302.33
2019-04-01T08:21:02.692Z,302.79
2019-04-01T08:22:02.670Z,303.60
2019-04-01T08:23:02.679Z,303.31
2019-04-01T08:24:02.647Z,303.35
2019-04-01T08:25:02.643Z,302.33
2019-04-01T08:26:03.715Z,302.66
2019-04-01T08:27:02.634Z,300.82
2019-04-01T08:28:02.617Z,302.44
2019-04-01T08:29:02.603Z,302.52
2019-04-01T08:30:02.592Z,302.00
2019-04-01T08:31:02.660Z,302.72
2019-04-01T08:32:02.596Z,302.78
2019-04-01T08:33:02.635Z,301.48
2019-04-01T08:34:02.619Z,302.41
2019-04-01T08:35:02.614Z,301.96
2019-04-01T08:36:02.549Z,302.84
2019-04-01T08:37:02.745Z,302.64
2019-04-01T08:38:02.686Z,302.79
2019-04-01T08:39:02.584Z,303.32
2019-04-01T08:40:02.513Z,302.51
2019-04-01T08:41:02.486Z,302.75
2019-04-01T08:42:02.650Z,302.67
2019-04-01T08:43:02.518Z,302.80
2019-04-01T08:44:03.360Z,303.73
2019-04-01T08:45:02.447Z,301.95
2019-04-01T08:46:02.438Z,302.41
2019-04-01T08:47:02.559Z,302.85
2019-04-01T08:48:02.437Z,302.92
2019-04-01T08:49:02.395Z,302.62
2019-04-01T08:50:02.446Z,301.83
2019-04-01T08:51:02.357Z,302.61
2019-04-01T08:52:02.366Z,302.89
2019-04-01T08:53:02.345Z,302.37
2019-04-01T08:54:02.324Z,302.49
2019-04-01T08:55:02.332Z,301.69
2019-04-01T08:56:02.313Z,303.19
2019-04-01T08:57:02.291Z,302.75
2019-04-01T08:58:02.283Z,302.63
2019-04-01T08:59:02.292Z,302.43
2019-04-01T09:00:02.313Z,302.25
2019-04-01T09:01:02.267Z,303.25
2019-04-01T09:02:16.708Z,301.82
2019-04-01T09:03:03.232Z,302.06
2019-04-01T09:04:02.285Z,302.10
2019-04-01T09:05:02.219Z,302.82
2019-04-01T09:06:02.329Z,302.22
2019-04-01T09:07:02.213Z,302.53
2019-04-01T09:08:02.204Z,302.37
2019-04-01T09:09:02.206Z,302.64
2019-04-01T09:10:02.184Z,301.92
2019-04-01T09:11:02.171Z,301.69
2019-04-01T09:12:02.214Z,302.31
2019-04-01T09:13:02.127Z,302.40
2019-04-01T09:14:02.138Z,309.86
2019-04-01T09:15:02.152Z,299.15
2019-04-01T09:16:02.111Z,302.87
2019-04-01T09:17:02.095Z,296.83
2019-04-01T09:18:02.087Z,300.89
2019-04-01T09:19:02.064Z,301.42
2019-04-01T09:20:02.069Z,301.29
2019-04-01T09:21:02.056Z,301.69
2019-04-01T09:22:02.058Z,302.52
2019-04-01T09:23:02.045Z,302.30
2019-04-01T09:24:02.098Z,302.23
2019-04-01T09:25:02.017Z,301.75
2019-04-01T09:26:02.007Z,302.12
2019-04-01T09:27:01.997Z,301.44
2019-04-01T09:28:02.030Z,301.05
2019-04-01T09:29:01.966Z,301.05
2019-04-01T09:30:01.966Z,301.80
2019-04-01T09:31:01.950Z,301.32
2019-04-01T09:32:01.963Z,301.70
2019-04-01T09:33:01.942Z,301.43
2019-04-01T09:34:01.946Z,301.56
2019-04-01T09:35:01.929Z,301.25
2019-04-01T09:36:01.894Z,302.03
2019-04-01T09:37:01.890Z,300.09
2019-04-01T09:38:01.865Z,301.96
2019-04-01T09:39:01.903Z,302.05
2019-04-01T09:40:01.861Z,301.95
2019-04-01T09:41:01.860Z,301.42
2019-04-01T09:42:02.722Z,302.36
2019-04-01T09:43:01.841Z,301.82
2019-04-01T09:44:01.807Z,302.73
2019-04-01T09:45:01.875Z,301.95
2019-04-01T09:46:01.782Z,301.24
2019-04-01T09:47:01.909Z,300.99
2019-04-01T09:48:01.776Z,301.36
2019-04-01T09:49:01.789Z,301.41
2019-04-01T09:50:01.790Z,301.65
2019-04-01T09:51:01.765Z,301.92
2019-04-01T09:52:03.869Z,302.17
2019-04-01T09:53:01.713Z,301.77
2019-04-01T09:54:01.729Z,301.13
2019-04-01T09:55:01.726Z,301.84
2019-04-01T09:56:01.691Z,302.38
2019-04-01T09:57:16.101Z,301.60
2019-04-01T09:58:02.674Z,300.20
2019-04-01T09:59:01.654Z,302.96
2019-04-01T10:00:01.684Z,301.87
2019-04-01T10:01:01.680Z,300.41
2019-04-01T10:02:01.639Z,302.32
2019-04-01T10:03:01.627Z,302.19
2019-04-01T10:04:01.627Z,302.41
2019-04-01T10:05:01.592Z,301.62
2019-04-01T10:06:01.587Z,301.58
2019-04-01T10:07:01.625Z,301.51
2019-04-01T10:08:01.575Z,302.68
2019-04-01T10:09:01.576Z,302.06
2019-04-01T10:10:01.551Z,302.18
2019-04-01T10:11:01.532Z,302.38
2019-04-01T10:12:01.524Z,302.33
2019-04-01T10:13:01.527Z,302.15
2019-04-01T10:14:01.536Z,301.84
2019-04-01T10:15:01.483Z,301.86
2019-04-01T10:16:01.484Z,302.05
2019-04-01T10:17:01.466Z,302.24
2019-04-01T10:18:01.444Z,302.44
2019-04-01T10:19:01.462Z,301.20
2019-04-01T10:20:01.667Z,301.43
2019-04-01T10:21:01.424Z,301.60
2019-04-01T10:22:01.409Z,302.17
2019-04-01T10:23:01.399Z,301.85
2019-04-01T10:24:01.405Z,302.65
2019-04-01T10:25:01.402Z,301.87
2019-04-01T10:26:01.349Z,301.84
2019-04-01T10:27:01.348Z,301.69
2019-04-01T10:28:01.411Z,302.77
2019-04-01T10:29:01.333Z,301.08
2019-04-01T10:30:01.325Z,302.26
2019-04-01T10:31:01.316Z,302.22
2019-04-01T10:32:01.314Z,301.41
2019-04-01T10:33:02.382Z,302.38
2019-04-01T10:34:01.289Z,302.28
2019-04-01T10:35:01.272Z,302.84
2019-04-01T10:36:01.264Z,302.36
2019-04-01T10:37:01.286Z,302.74
2019-04-01T10:38:01.226Z,300.80
2019-04-01T10:39:01.304Z,301.39
2019-04-01T10:40:01.218Z,300.95
2019-04-01T10:41:01.224Z,300.96
2019-04-01T10:42:01.218Z,301.18
2019-04-01T10:43:01.198Z,302.22
2019-04-01T10:44:04.586Z,302.17
2019-04-01T10:45:01.173Z,300.91
2019-04-01T10:46:01.166Z,301.38
2019-04-01T10:47:01.242Z,302.98
2019-04-01T10:48:01.229Z,301.47
2019-04-01T10:49:01.149Z,300.72
2019-04-01T10:50:01.168Z,301.52
2019-04-01T10:51:01.178Z,299.83
2019-04-01T10:52:01.099Z,301.90
2019-04-01T10:53:01.104Z,301.96
2019-04-01T10:54:01.152Z,301.31
2019-04-01T10:55:01.103Z,302.81
2019-04-01T10:56:01.100Z,302.23
2019-04-01T10:57:01.064Z,303.36
2019-04-01T10:58:01.081Z,301.57
2019-04-01T10:59:01.061Z,303.04
2019-04-01T11:00:01.119Z,301.45
2019-04-01T11:01:01.064Z,302.35
2019-04-01T11:02:01.045Z,301.27
2019-04-01T11:03:01.071Z,301.85
2019-04-01T11:04:01.019Z,300.83
2019-04-01T11:05:01.034Z,300.65
2019-04-01T11:06:01.039Z,302.27
2019-04-01T11:07:00.941Z,302.69
2019-04-01T11:08:01.003Z,301.88
2019-04-01T11:09:00.983Z,300.99
2019-04-01T11:10:00.914Z,300.93
2019-04-01T11:11:00.924Z,301.47
2019-04-01T11:12:00.891Z,301.78
2019-04-01T11:13:00.892Z,301.50
2019-04-01T11:14:00.870Z,302.07
2019-04-01T11:15:00.854Z,301.72
2019-04-01T11:16:00.841Z,302.06
2019-04-01T11:17:04.039Z,302.64
2019-04-01T11:18:00.847Z,303.21
2019-04-01T11:19:00.866Z,302.39
2019-04-01T11:20:00.799Z,301.22
2019-04-01T11:21:00.794Z,301.81
2019-04-01T11:22:00.784Z,301.77
2019-04-01T11:23:02.545Z,302.20
2019-04-01T11:24:02.015Z,302.16
2019-04-01T11:25:00.777Z,302.04
2019-04-01T11:26:00.814Z,301.26
2019-04-01T11:27:00.776Z,301.14
2019-04-01T11:28:00.725Z,300.65
2019-04-01T11:29:00.711Z,302.18
2019-04-01T11:30:00.700Z,302.48
2019-04-01T11:31:00.783Z,302.58
2019-04-01T11:32:00.699Z,299.53
2019-04-01T11:33:00.695Z,301.48
2019-04-01T11:34:00.668Z,301.56
2019-04-01T11:35:00.659Z,301.54
2019-04-01T11:36:00.641Z,301.90
2019-04-01T11:37:00.623Z,302.72
2019-04-01T11:38:00.707Z,300.73
2019-04-01T11:39:00.648Z,301.20
2019-04-01T11:40:00.625Z,301.87
2019-04-01T11:41:00.639Z,301.07
2019-04-01T11:42:01.565Z,301.99
2019-04-01T11:43:00.956Z,300.94
2019-04-01T11:44:00.590Z,301.91
2019-04-01T11:45:00.584Z,302.53
2019-04-01T11:46:00.554Z,302.43
2019-04-01T11:47:00.610Z,300.93
2019-04-01T11:48:00.557Z,301.68
2019-04-01T11:49:00.511Z,301.20
2019-04-01T11:50:00.564Z,302.63
2019-04-01T11:51:00.480Z,302.30
2019-04-01T11:52:00.503Z,301.67
2019-04-01T11:53:00.479Z,302.51
2019-04-01T11:54:00.442Z,302.25
2019-04-01T11:55:00.504Z,300.64
2019-04-01T11:56:00.415Z,302.87
2019-04-01T11:57:00.407Z,302.82
2019-04-01T11:58:00.563Z,302.44
2019-04-01T11:59:00.405Z,302.01
2019-04-01T12:00:00.508Z,303.22
2019-04-01T12:01:00.421Z,302.71
2019-04-01T12:02:00.380Z,301.36
2019-04-01T12:03:00.420Z,301.64
2019-04-01T12:04:00.329Z,301.56
2019-04-01T12:05:00.547Z,302.25
2019-04-01T12:06:00.312Z,303.36
2019-04-01T12:07:02.022Z,303.81
2019-04-01T12:08:00.294Z,303.01
2019-04-01T12:09:00.297Z,302.12
2019-04-01T12:10:00.294Z,302.29
2019-04-01T12:11:00.270Z,301.37
2019-04-01T12:12:00.366Z,303.25
2019-04-01T12:13:00.438Z,302.03
2019-04-01T12:14:00.233Z,302.14
2019-04-01T12:15:00.391Z,302.96
2019-04-01T12:16:00.219Z,302.85
2019-04-01T12:17:00.189Z,301.13
2019-04-01T12:18:00.196Z,301.84
2019-04-01T12:19:00.163Z,301.50
2019-04-01T12:20:00.397Z,301.34
2019-04-01T12:21:00.171Z,302.88
2019-04-01T12:22:00.165Z,302.38
2019-04-01T12:23:00.159Z,299.65
2019-04-01T12:24:00.120Z,302.14
2019-04-01T12:25:00.256Z,302.61
2019-04-01T12:26:13.908Z,301.36
2019-04-01T12:27:01.111Z,302.22
2019-04-01T12:28:00.097Z,303.82